BIENTÔT MET'MAP
version 2.0 !

Prévue avant fin octobre,
la nouvelle version sera
plus belle, plus complète
et hébergée sur un serveur
3 fois plus puissant...
et toujours gratuite !


Pas compatible ?
Essayez la version Mobile !

SE CONNECTER : | S'inscrire | Disclaimer | Découvrir Orbifly |
Code OACI :

TAF - EDOP Schwerin Parchim - 30 Mar 2020 12:41 UTC - Data Source NOAA   


- Altitude de l'aérodrome : 166 ft
- Code IATA : SZW
- Pas de NOTAMs connus.


EDOP - Schwerin Parchim

Dernier METAR connu : 2015/08/11 07:50 EDOP 110750Z 31005KT 250V010 9999 FEW013 BKN200 22/17 Q1016 RMK ATIS H
Prévision TAF périmée.

Source NOAA


MET'MAP, la Météo Aéronautique d'un coup d'oeil ! - Copyright ORBIFLY Décembre 2007

Développement & Programmation : Alexandra Zaïnal
Co-Développement : Marc-Olivier Méhu
Soutien technique & logistique : Manuel Goepfert
Conception & Financement : Baudouin d'Aumeries